sensor_id;sensor_type;location;lat;lon;timestamp;temperature;humidity
37324;DHT22;23205;49.986;18.950;2022-12-20T00:02:51;1.20;99.90
37324;DHT22;23205;49.986;18.950;2022-12-20T00:07:52;1.30;99.90
37324;DHT22;23205;49.986;18.950;2022-12-20T00:12:52;1.20;99.90
37324;DHT22;23205;49.986;18.950;2022-12-20T00:17:53;1.20;99.90
37324;DHT22;23205;49.986;18.950;2022-12-20T00:22:55;1.20;99.90
37324;DHT22;23205;49.986;18.950;2022-12-20T00:27:57;1.10;99.90
37324;DHT22;23205;49.986;18.950;2022-12-20T00:32:57;1.30;99.90
37324;DHT22;23205;49.986;18.950;2022-12-20T00:37:58;1.30;99.90
37324;DHT22;23205;49.986;18.950;2022-12-20T00:42:59;1.30;99.90
37324;DHT22;23205;49.986;18.950;2022-12-20T00:47:59;1.50;99.90
37324;DHT22;23205;49.986;18.950;2022-12-20T00:53:00;1.40;99.90
37324;DHT22;23205;49.986;18.950;2022-12-20T00:58:01;1.40;99.90
37324;DHT22;23205;49.986;18.950;2022-12-20T01:03:01;1.30;99.90
37324;DHT22;23205;49.986;18.950;2022-12-20T01:08:02;1.40;99.90
37324;DHT22;23205;49.986;18.950;2022-12-20T01:13:04;1.50;99.90
37324;DHT22;23205;49.986;18.950;2022-12-20T01:18:05;1.50;99.90
37324;DHT22;23205;49.986;18.950;2022-12-20T01:23:06;1.50;99.90
37324;DHT22;23205;49.986;18.950;2022-12-20T01:28:06;1.60;99.90
37324;DHT22;23205;49.986;18.950;2022-12-20T01:33:07;1.40;99.90
37324;DHT22;23205;49.986;18.950;2022-12-20T01:38:08;1.40;99.90
37324;DHT22;23205;49.986;18.950;2022-12-20T01:43:11;1.50;99.90
37324;DHT22;23205;49.986;18.950;2022-12-20T01:48:17;1.40;99.90
37324;DHT22;23205;49.986;18.950;2022-12-20T01:53:22;1.50;99.90
37324;DHT22;23205;49.986;18.950;2022-12-20T01:58:23;1.30;99.90
37324;DHT22;23205;49.986;18.950;2022-12-20T02:03:24;1.30;99.90
37324;DHT22;23205;49.986;18.950;2022-12-20T02:08:25;1.20;99.90
37324;DHT22;23205;49.986;18.950;2022-12-20T02:13:46;1.30;99.90
37324;DHT22;23205;49.986;18.950;2022-12-20T02:29:31;1.30;99.90
37324;DHT22;23205;49.986;18.950;2022-12-20T02:34:35;1.40;99.90
37324;DHT22;23205;49.986;18.950;2022-12-20T02:39:39;1.50;99.90
37324;DHT22;23205;49.986;18.950;2022-12-20T02:44:53;1.50;99.90
37324;DHT22;23205;49.986;18.950;2022-12-20T02:50:21;1.50;99.90
37324;DHT22;23205;49.986;18.950;2022-12-20T02:55:33;1.50;99.90
37324;DHT22;23205;49.986;18.950;2022-12-20T03:00:39;1.40;99.90
37324;DHT22;23205;49.986;18.950;2022-12-20T03:05:44;1.40;99.90
37324;DHT22;23205;49.986;18.950;2022-12-20T03:10:47;1.20;99.90
37324;DHT22;23205;49.986;18.950;2022-12-20T03:15:48;1.20;99.90
37324;DHT22;23205;49.986;18.950;2022-12-20T03:20:49;1.20;99.90
37324;DHT22;23205;49.986;18.950;2022-12-20T03:25:50;1.30;99.90
37324;DHT22;23205;49.986;18.950;2022-12-20T03:31:01;1.20;99.90
37324;DHT22;23205;49.986;18.950;2022-12-20T03:36:03;1.40;99.90
37324;DHT22;23205;49.986;18.950;2022-12-20T03:41:05;1.20;99.90
37324;DHT22;23205;49.986;18.950;2022-12-20T03:46:06;1.50;99.90
37324;DHT22;23205;49.986;18.950;2022-12-20T03:51:11;1.10;99.90
37324;DHT22;23205;49.986;18.950;2022-12-20T03:56:12;1.10;99.90
37324;DHT22;23205;49.986;18.950;2022-12-20T04:01:20;1.30;99.90
37324;DHT22;23205;49.986;18.950;2022-12-20T04:06:22;1.10;99.90
37324;DHT22;23205;49.986;18.950;2022-12-20T04:11:24;1.20;99.90
37324;DHT22;23205;49.986;18.950;2022-12-20T04:16:36;1.30;99.90
37324;DHT22;23205;49.986;18.950;2022-12-20T04:21:38;1.00;99.90
37324;DHT22;23205;49.986;18.950;2022-12-20T04:26:40;1.30;99.90
37324;DHT22;23205;49.986;18.950;2022-12-20T04:31:42;0.90;99.90
37324;DHT22;23205;49.986;18.950;2022-12-20T04:36:43;0.90;99.90
37324;DHT22;23205;49.986;18.950;2022-12-20T04:41:50;0.90;99.90
37324;DHT22;23205;49.986;18.950;2022-12-20T04:46:51;0.90;99.90
37324;DHT22;23205;49.986;18.950;2022-12-20T04:51:52;0.90;99.90
37324;DHT22;23205;49.986;18.950;2022-12-20T04:56:53;0.90;99.90
37324;DHT22;23205;49.986;18.950;2022-12-20T05:01:56;0.80;99.90
37324;DHT22;23205;49.986;18.950;2022-12-20T05:07:15;0.90;99.90
37324;DHT22;23205;49.986;18.950;2022-12-20T05:12:22;0.80;99.90
37324;DHT22;23205;49.986;18.950;2022-12-20T05:17:23;0.70;99.90
37324;DHT22;23205;49.986;18.950;2022-12-20T05:22:24;0.70;99.90
37324;DHT22;23205;49.986;18.950;2022-12-20T05:27:46;0.70;99.90
37324;DHT22;23205;49.986;18.950;2022-12-20T05:32:47;0.80;99.90
37324;DHT22;23205;49.986;18.950;2022-12-20T05:37:48;0.70;99.90
37324;DHT22;23205;49.986;18.950;2022-12-20T05:42:52;0.70;99.90
37324;DHT22;23205;49.986;18.950;2022-12-20T05:47:55;0.70;99.90
37324;DHT22;23205;49.986;18.950;2022-12-20T05:52:58;0.70;99.90
37324;DHT22;23205;49.986;18.950;2022-12-20T05:57:59;0.50;99.90
37324;DHT22;23205;49.986;18.950;2022-12-20T06:03:17;1.00;99.90
37324;DHT22;23205;49.986;18.950;2022-12-20T06:08:19;0.40;99.90
37324;DHT22;23205;49.986;18.950;2022-12-20T06:13:21;0.40;99.90
37324;DHT22;23205;49.986;18.950;2022-12-20T06:18:25;0.40;99.90
37324;DHT22;23205;49.986;18.950;2022-12-20T06:23:30;0.30;99.90
37324;DHT22;23205;49.986;18.950;2022-12-20T06:28:38;0.40;99.90
37324;DHT22;23205;49.986;18.950;2022-12-20T06:33:42;0.30;99.90
37324;DHT22;23205;49.986;18.950;2022-12-20T06:38:45;0.30;99.90
37324;DHT22;23205;49.986;18.950;2022-12-20T06:43:45;0.30;99.90
37324;DHT22;23205;49.986;18.950;2022-12-20T06:48:47;0.20;99.90
37324;DHT22;23205;49.986;18.950;2022-12-20T06:53:48;0.80;99.90
37324;DHT22;23205;49.986;18.950;2022-12-20T06:58:49;0.30;99.90
37324;DHT22;23205;49.986;18.950;2022-12-20T07:03:50;0.30;99.90
37324;DHT22;23205;49.986;18.950;2022-12-20T07:08:51;0.40;99.90
37324;DHT22;23205;49.986;18.950;2022-12-20T07:13:56;1.00;99.90
37324;DHT22;23205;49.986;18.950;2022-12-20T07:18:57;1.10;99.90
37324;DHT22;23205;49.986;18.950;2022-12-20T07:23:58;1.10;99.90
37324;DHT22;23205;49.986;18.950;2022-12-20T07:28:58;0.70;99.90
37324;DHT22;23205;49.986;18.950;2022-12-20T07:33:59;0.80;99.90
37324;DHT22;23205;49.986;18.950;2022-12-20T07:39:00;0.90;99.90
37324;DHT22;23205;49.986;18.950;2022-12-20T07:44:01;1.10;99.90
37324;DHT22;23205;49.986;18.950;2022-12-20T07:49:02;1.10;99.90
37324;DHT22;23205;49.986;18.950;2022-12-20T07:54:06;1.50;99.90
37324;DHT22;23205;49.986;18.950;2022-12-20T07:59:10;1.30;99.90
37324;DHT22;23205;49.986;18.950;2022-12-20T08:04:17;1.30;99.90
37324;DHT22;23205;49.986;18.950;2022-12-20T08:09:18;1.30;99.90
37324;DHT22;23205;49.986;18.950;2022-12-20T08:14:20;1.40;99.90
37324;DHT22;23205;49.986;18.950;2022-12-20T08:19:21;1.40;99.90
37324;DHT22;23205;49.986;18.950;2022-12-20T08:24:22;1.40;99.90
37324;DHT22;23205;49.986;18.950;2022-12-20T08:29:22;1.40;99.90
37324;DHT22;23205;49.986;18.950;2022-12-20T08:34:23;1.60;99.90
37324;DHT22;23205;49.986;18.950;2022-12-20T08:39:24;1.70;99.90
37324;DHT22;23205;49.986;18.950;2022-12-20T08:44:25;1.80;99.90
37324;DHT22;23205;49.986;18.950;2022-12-20T08:49:25;2.00;99.90
37324;DHT22;23205;49.986;18.950;2022-12-20T08:54:26;2.10;99.90
37324;DHT22;23205;49.986;18.950;2022-12-20T08:59:27;2.10;99.90
37324;DHT22;23205;49.986;18.950;2022-12-20T09:04:28;2.20;99.90
37324;DHT22;23205;49.986;18.950;2022-12-20T09:09:29;2.10;99.90
37324;DHT22;23205;49.986;18.950;2022-12-20T09:14:29;2.20;99.90
37324;DHT22;23205;49.986;18.950;2022-12-20T09:19:30;2.20;99.90
37324;DHT22;23205;49.986;18.950;2022-12-20T09:24:31;2.80;99.90
37324;DHT22;23205;49.986;18.950;2022-12-20T09:29:32;2.70;99.90
37324;DHT22;23205;49.986;18.950;2022-12-20T09:34:33;2.80;99.90
37324;DHT22;23205;49.986;18.950;2022-12-20T09:39:33;2.90;99.90
37324;DHT22;23205;49.986;18.950;2022-12-20T09:44:38;2.70;99.90
37324;DHT22;23205;49.986;18.950;2022-12-20T09:49:44;2.20;99.90
37324;DHT22;23205;49.986;18.950;2022-12-20T10:00:14;2.50;99.90
37324;DHT22;23205;49.986;18.950;2022-12-20T10:10:53;2.60;99.90
37324;DHT22;23205;49.986;18.950;2022-12-20T10:21:19;2.80;99.90
37324;DHT22;23205;49.986;18.950;2022-12-20T10:26:22;3.00;99.90
37324;DHT22;23205;49.986;18.950;2022-12-20T10:31:22;3.10;99.90
37324;DHT22;23205;49.986;18.950;2022-12-20T10:36:33;3.30;99.90
37324;DHT22;23205;49.986;18.950;2022-12-20T10:51:52;2.90;99.90
37324;DHT22;23205;49.986;18.950;2022-12-20T10:56:59;2.90;99.90
37324;DHT22;23205;49.986;18.950;2022-12-20T11:02:33;3.00;99.90
37324;DHT22;23205;49.986;18.950;2022-12-20T11:07:34;3.20;99.90
37324;DHT22;23205;49.986;18.950;2022-12-20T11:12:35;3.00;99.90
37324;DHT22;23205;49.986;18.950;2022-12-20T11:17:41;2.80;99.90
37324;DHT22;23205;49.986;18.950;2022-12-20T11:22:49;3.10;99.90
37324;DHT22;23205;49.986;18.950;2022-12-20T11:49:36;3.20;99.90
37324;DHT22;23205;49.986;18.950;2022-12-20T11:54:48;3.40;99.90
37324;DHT22;23205;49.986;18.950;2022-12-20T11:59:56;3.90;99.90
37324;DHT22;23205;49.986;18.950;2022-12-20T12:05:02;3.80;99.90
37324;DHT22;23205;49.986;18.950;2022-12-20T12:10:30;4.10;99.90
37324;DHT22;23205;49.986;18.950;2022-12-20T12:15:49;4.30;99.90
37324;DHT22;23205;49.986;18.950;2022-12-20T12:21:23;4.30;99.90
37324;DHT22;23205;49.986;18.950;2022-12-20T12:26:31;4.40;99.90
37324;DHT22;23205;49.986;18.950;2022-12-20T12:31:37;4.20;99.90
37324;DHT22;23205;49.986;18.950;2022-12-20T12:46:58;3.60;99.90
37324;DHT22;23205;49.986;18.950;2022-12-20T12:52:02;3.50;99.90
37324;DHT22;23205;49.986;18.950;2022-12-20T13:33:47;4.00;99.90
37324;DHT22;23205;49.986;18.950;2022-12-20T13:38:51;2.80;99.90
37324;DHT22;23205;49.986;18.950;2022-12-20T13:43:52;2.90;99.90
37324;DHT22;23205;49.986;18.950;2022-12-20T13:48:58;2.80;99.90
37324;DHT22;23205;49.986;18.950;2022-12-20T13:54:05;2.70;99.90
37324;DHT22;23205;49.986;18.950;2022-12-20T14:04:18;2.50;99.90
37324;DHT22;23205;49.986;18.950;2022-12-20T14:09:33;2.50;99.90
37324;DHT22;23205;49.986;18.950;2022-12-20T14:14:48;2.60;99.90
37324;DHT22;23205;49.986;18.950;2022-12-20T14:25:08;2.30;99.90
37324;DHT22;23205;49.986;18.950;2022-12-20T14:30:30;2.20;99.90
37324;DHT22;23205;49.986;18.950;2022-12-20T14:35:31;2.10;99.90
37324;DHT22;23205;49.986;18.950;2022-12-20T14:40:40;2.10;99.90
37324;DHT22;23205;49.986;18.950;2022-12-20T14:45:41;1.90;99.90
37324;DHT22;23205;49.986;18.950;2022-12-20T14:50:51;1.90;99.90
37324;DHT22;23205;49.986;18.950;2022-12-20T14:55:53;1.90;99.90
37324;DHT22;23205;49.986;18.950;2022-12-20T15:01:20;1.80;99.90
37324;DHT22;23205;49.986;18.950;2022-12-20T15:06:34;1.80;99.90
37324;DHT22;23205;49.986;18.950;2022-12-20T15:11:37;1.80;99.90
37324;DHT22;23205;49.986;18.950;2022-12-20T15:16:45;1.70;99.90
37324;DHT22;23205;49.986;18.950;2022-12-20T15:21:47;1.80;99.90
37324;DHT22;23205;49.986;18.950;2022-12-20T15:26:51;1.70;99.90
37324;DHT22;23205;49.986;18.950;2022-12-20T15:32:24;1.70;99.90
37324;DHT22;23205;49.986;18.950;2022-12-20T15:37:29;1.70;99.90
37324;DHT22;23205;49.986;18.950;2022-12-20T15:42:29;1.60;99.90
37324;DHT22;23205;49.986;18.950;2022-12-20T15:47:30;1.80;99.90
37324;DHT22;23205;49.986;18.950;2022-12-20T15:52:31;1.70;99.90
37324;DHT22;23205;49.986;18.950;2022-12-20T15:57:32;1.80;99.90
37324;DHT22;23205;49.986;18.950;2022-12-20T16:02:34;1.60;99.90
37324;DHT22;23205;49.986;18.950;2022-12-20T16:07:34;1.70;99.90
37324;DHT22;23205;49.986;18.950;2022-12-20T16:12:35;1.50;99.90
37324;DHT22;23205;49.986;18.950;2022-12-20T16:17:36;2.20;99.90
37324;DHT22;23205;49.986;18.950;2022-12-20T16:22:37;1.60;99.90
37324;DHT22;23205;49.986;18.950;2022-12-20T16:27:38;1.60;99.90
37324;DHT22;23205;49.986;18.950;2022-12-20T16:32:39;1.40;99.90
37324;DHT22;23205;49.986;18.950;2022-12-20T16:37:40;1.40;99.90
37324;DHT22;23205;49.986;18.950;2022-12-20T16:42:41;1.40;99.90
37324;DHT22;23205;49.986;18.950;2022-12-20T16:47:41;1.40;99.90
37324;DHT22;23205;49.986;18.950;2022-12-20T16:52:45;1.30;99.90
37324;DHT22;23205;49.986;18.950;2022-12-20T16:57:46;1.30;99.90
37324;DHT22;23205;49.986;18.950;2022-12-20T17:02:47;1.40;99.90
37324;DHT22;23205;49.986;18.950;2022-12-20T17:07:48;1.30;99.90
37324;DHT22;23205;49.986;18.950;2022-12-20T17:12:49;1.10;99.90
37324;DHT22;23205;49.986;18.950;2022-12-20T17:17:52;1.30;99.90
37324;DHT22;23205;49.986;18.950;2022-12-20T17:22:54;1.40;99.90
37324;DHT22;23205;49.986;18.950;2022-12-20T17:27:55;1.50;99.90
37324;DHT22;23205;49.986;18.950;2022-12-20T17:32:56;1.50;99.90
37324;DHT22;23205;49.986;18.950;2022-12-20T17:37:57;1.50;99.90
37324;DHT22;23205;49.986;18.950;2022-12-20T17:43:00;1.70;99.90
37324;DHT22;23205;49.986;18.950;2022-12-20T17:48:00;1.70;99.90
37324;DHT22;23205;49.986;18.950;2022-12-20T17:53:01;1.70;99.90
37324;DHT22;23205;49.986;18.950;2022-12-20T17:58:03;1.70;99.90
37324;DHT22;23205;49.986;18.950;2022-12-20T18:03:04;1.50;99.90
37324;DHT22;23205;49.986;18.950;2022-12-20T18:08:05;1.60;99.90
37324;DHT22;23205;49.986;18.950;2022-12-20T18:13:05;1.40;99.90
37324;DHT22;23205;49.986;18.950;2022-12-20T18:18:06;1.50;99.90
37324;DHT22;23205;49.986;18.950;2022-12-20T18:23:07;1.50;99.90
37324;DHT22;23205;49.986;18.950;2022-12-20T18:28:08;1.40;99.90
37324;DHT22;23205;49.986;18.950;2022-12-20T18:33:09;1.40;99.90
37324;DHT22;23205;49.986;18.950;2022-12-20T18:38:14;1.10;99.90
37324;DHT22;23205;49.986;18.950;2022-12-20T18:43:20;1.00;99.90
37324;DHT22;23205;49.986;18.950;2022-12-20T18:48:23;1.00;99.90
37324;DHT22;23205;49.986;18.950;2022-12-20T18:53:26;1.20;99.90
37324;DHT22;23205;49.986;18.950;2022-12-20T18:58:32;0.60;99.90
37324;DHT22;23205;49.986;18.950;2022-12-20T19:03:35;1.00;99.90
37324;DHT22;23205;49.986;18.950;2022-12-20T19:08:38;0.80;99.90
37324;DHT22;23205;49.986;18.950;2022-12-20T19:13:44;0.80;99.90
37324;DHT22;23205;49.986;18.950;2022-12-20T19:18:48;0.70;99.90
37324;DHT22;23205;49.986;18.950;2022-12-20T19:23:57;0.80;99.90
37324;DHT22;23205;49.986;18.950;2022-12-20T19:28:59;0.70;99.90
37324;DHT22;23205;49.986;18.950;2022-12-20T19:34:03;0.80;99.90
37324;DHT22;23205;49.986;18.950;2022-12-20T19:39:06;0.60;99.90
37324;DHT22;23205;49.986;18.950;2022-12-20T19:44:07;0.70;99.90
37324;DHT22;23205;49.986;18.950;2022-12-20T19:49:09;0.60;99.90
37324;DHT22;23205;49.986;18.950;2022-12-20T19:54:09;1.20;99.90
37324;DHT22;23205;49.986;18.950;2022-12-20T19:59:10;0.70;99.90
37324;DHT22;23205;49.986;18.950;2022-12-20T20:04:13;0.70;99.90
37324;DHT22;23205;49.986;18.950;2022-12-20T20:09:14;1.10;99.90
37324;DHT22;23205;49.986;18.950;2022-12-20T20:14:14;1.00;99.90
37324;DHT22;23205;49.986;18.950;2022-12-20T20:19:15;0.40;99.90
37324;DHT22;23205;49.986;18.950;2022-12-20T20:24:16;0.50;99.90
37324;DHT22;23205;49.986;18.950;2022-12-20T20:29:17;0.60;99.90
37324;DHT22;23205;49.986;18.950;2022-12-20T20:34:18;0.90;99.90
37324;DHT22;23205;49.986;18.950;2022-12-20T20:39:19;0.80;99.90
37324;DHT22;23205;49.986;18.950;2022-12-20T20:44:19;1.00;99.90
37324;DHT22;23205;49.986;18.950;2022-12-20T20:49:20;1.00;99.90
37324;DHT22;23205;49.986;18.950;2022-12-20T20:54:21;0.90;99.90
37324;DHT22;23205;49.986;18.950;2022-12-20T20:59:22;1.00;99.90
37324;DHT22;23205;49.986;18.950;2022-12-20T21:04:22;1.10;99.90
37324;DHT22;23205;49.986;18.950;2022-12-20T21:09:23;1.20;99.90
37324;DHT22;23205;49.986;18.950;2022-12-20T21:14:24;1.10;99.90
37324;DHT22;23205;49.986;18.950;2022-12-20T21:19:25;1.10;99.90
37324;DHT22;23205;49.986;18.950;2022-12-20T21:24:26;1.10;99.90
37324;DHT22;23205;49.986;18.950;2022-12-20T21:29:27;1.10;99.90
37324;DHT22;23205;49.986;18.950;2022-12-20T21:34:27;1.20;99.90
37324;DHT22;23205;49.986;18.950;2022-12-20T21:39:29;1.30;99.90
37324;DHT22;23205;49.986;18.950;2022-12-20T21:44:29;1.10;99.90
37324;DHT22;23205;49.986;18.950;2022-12-20T21:49:30;1.30;99.90
37324;DHT22;23205;49.986;18.950;2022-12-20T21:54:31;1.30;99.90
37324;DHT22;23205;49.986;18.950;2022-12-20T21:59:32;1.20;99.90
37324;DHT22;23205;49.986;18.950;2022-12-20T22:04:33;1.20;99.90
37324;DHT22;23205;49.986;18.950;2022-12-20T22:09:35;1.20;99.90
37324;DHT22;23205;49.986;18.950;2022-12-20T22:14:35;1.30;99.90
37324;DHT22;23205;49.986;18.950;2022-12-20T22:19:36;1.30;99.90
37324;DHT22;23205;49.986;18.950;2022-12-20T22:24:37;1.30;99.90
37324;DHT22;23205;49.986;18.950;2022-12-20T22:29:38;1.60;99.90
37324;DHT22;23205;49.986;18.950;2022-12-20T22:34:39;1.50;99.90
37324;DHT22;23205;49.986;18.950;2022-12-20T22:39:40;1.50;99.90
37324;DHT22;23205;49.986;18.950;2022-12-20T22:44:41;1.50;99.90
37324;DHT22;23205;49.986;18.950;2022-12-20T22:49:42;1.40;99.90
37324;DHT22;23205;49.986;18.950;2022-12-20T22:54:42;1.40;99.90
37324;DHT22;23205;49.986;18.950;2022-12-20T22:59:44;1.40;99.90
37324;DHT22;23205;49.986;18.950;2022-12-20T23:04:44;1.40;99.90
37324;DHT22;23205;49.986;18.950;2022-12-20T23:09:45;1.10;99.90
37324;DHT22;23205;49.986;18.950;2022-12-20T23:14:46;1.20;99.90
37324;DHT22;23205;49.986;18.950;2022-12-20T23:20:06;1.00;99.90
37324;DHT22;23205;49.986;18.950;2022-12-20T23:25:26;0.90;99.90
37324;DHT22;23205;49.986;18.950;2022-12-20T23:30:27;0.90;99.90
37324;DHT22;23205;49.986;18.950;2022-12-20T23:35:28;1.20;99.90
37324;DHT22;23205;49.986;18.950;2022-12-20T23:40:48;0.90;99.90
37324;DHT22;23205;49.986;18.950;2022-12-20T23:45:49;1.00;99.90
37324;DHT22;23205;49.986;18.950;2022-12-20T23:50:56;0.70;99.90
37324;DHT22;23205;49.986;18.950;2022-12-20T23:55:59;0.90;99.90
